• Join FlightAware (Why Join?)
  • Login
  • US Flag 
09:16AM EDT


 

Airport Tracker/Info


-or-


 

Live Flight TrackerFlight Track Log ✈ SWA1377 ✈ 10-Apr-2013 ✈ KRNO - KLAS

Flight Track Log - Related Links

Times and Time Zones

All times are in EDT time to prevent confusion due to time zone crossing. See the SWA1377 flight status page for this flight to view local times or setup timezone preferences in your user account.

Time Position Orientation Groundspeed Altitude Reporting Facility
EDT Latitude Longitude Course Direction KTS MPH feet Rate Location/Type
05:09PM 39.4733 -119.7675 135° Southeast 169 194 33,000  Level Oakland Center
05:10PM 39.4500 -119.7667 178° South 191 220 6,400 -17,160 Descending Northern Cal TRACON
05:11PM 39.3833 -119.7667 180° South 249 287 9,600 2,760 Climbing Northern Cal TRACON
05:11PM 39.3486 -119.7675 181° South 269 310 11,100 2,160 Climbing Oakland Center
05:12PM 39.2608 -119.7519 172° South 322 371 13,300 3,000 Climbing Oakland Center
05:13PM 39.1714 -119.6411 136° Southeast 375 432 17,200 3,120 Climbing Oakland Center
05:14PM 39.0936 -119.5419 135° Southeast 390 449 19,700 2,340 Climbing Oakland Center
05:15PM 39.2805 -119.3392 135° Southeast  Level FlightAware Approximate
05:15PM 39.0103 -119.4369 136° Southeast 411 473 22,100  Level Oakland Center
05:16PM 38.9231 -119.3253 135° Southeast 436 502 24,800 2,400 Climbing Oakland Center
05:18PM 38.8331 -119.2119 136° Southeast 450 518 27,000 2,160 Climbing Oakland Center
05:19PM 38.7408 -119.0947 135° Southeast 463 533 29,200 1,920 Climbing Oakland Center
05:20PM 38.6486 -118.9794 136° Southeast 467 537 31,000 840 Climbing Oakland Center
05:21PM 38.5567 -118.8650 136° Southeast 464 534 31,000  Level Oakland Center
05:22PM 38.4436 -118.7242 136° Southeast 473 544 31,000  Level Oakland Center
05:23PM 38.3472 -118.6044 136° Southeast 482 555 31,000  Level Oakland Center
05:25PM 38.1544 -118.3675 136° Southeast 484 557 31,000  Level Oakland Center
05:26PM 38.0533 -118.2428 136° Southeast 484 557 31,000  Level Oakland Center
05:27PM 37.9564 -118.1250 136° Southeast 485 558 31,000  Level Oakland Center
05:28PM 37.8592 -118.0067 136° Southeast 487 560 31,000  Level Oakland Center
05:29PM 37.7608 -117.8883 136° Southeast 489 563 31,000  Level Oakland Center
05:30PM 37.6758 -117.7589 130° Southeast 484 557 31,000  Level Oakland Center
05:31PM 37.6039 -117.6175 123° Southeast 482 555 31,000  Level Oakland Center
05:32PM 37.5331 -117.4794 123° Southeast 473 544 31,000  Level Oakland Center
05:33PM 37.4603 -117.3386 123° Southeast 481 554 31,000  Level Oakland Center
05:34PM 37.3425 -117.2039 138° Southeast 488 562 31,000  Level Oakland Center
05:35PM 37.2306 -117.1111 147° Southeast 483 556 31,000  Level Oakland Center
05:36PM 37.1186 -117.0161 146° Southeast 486 559 31,000  Level Oakland Center
05:37PM 37.0072 -116.9222 146° Southeast 483 556 31,000  Level Oakland Center
05:38PM 36.8953 -116.8281 146° Southeast 482 555 31,000 -300 Level Oakland Center
05:39PM 36.7844 -116.7289 144° Southeast 489 563 30,500 -1,320 Descending Oakland Center
05:40PM 36.6997 -116.6042 130° Southeast 470 541 28,300 -2,040 Descending Oakland Center
05:40PM 36.6828 -116.5775 128° Southeast 469 540 27,900 -2,340 Descending Los Angeles Center
05:41PM 36.5844 -116.4378 131° Southeast 453 521 25,300 -2,280 Descending Los Angeles Center
05:42PM 36.5103 -116.3344 132° Southeast 443 510 23,300 -2,160 Descending Los Angeles Center
05:43PM 36.4233 -116.2094 131° Southeast 432 497 20,900 -2,160 Descending Los Angeles Center
05:44PM 36.3458 -116.0986 131° Southeast 426 490 18,900 -1,980 Descending Los Angeles Center
05:45PM 36.3119 -116.0631 140° Southeast 427 491 18,100 -1,920 Descending Los Angeles Center
05:45PM 36.2900 -116.0303 130° Southeast 412 474 17,600 -2,040 Descending Los Angeles Center
05:45PM 36.2644 -115.9886 127° Southeast 405 466 16,800 -1,560 Descending Los Angeles Center
05:46PM 36.2231 -115.9372 135° Southeast 394 453 16,200 -780 Descending Los Angeles Center
05:46PM 36.1981 -115.8900 123° Southeast 372 428 16,000 -240 Descending Los Angeles Center
05:47PM 36.1767 -115.8297 114° Southeast 319 367 16,000 -420 Level Los Angeles Center
05:47PM 36.1617 -115.7831 112° Southeast 312 359 15,600 -1,020 Descending Los Angeles Center
05:48PM 36.1450 -115.7308 112° Southeast 302 348 15,000 -1,020 Descending Los Angeles Center
05:48PM 36.1319 -115.6883 111° Southeast 299 344 14,600 -900 Descending Los Angeles Center
05:49PM 36.1150 -115.6394 113° Southeast 287 330 14,100 -1,080 Descending Los Angeles Center
05:50PM 36.1047 -115.5900 104° East 284 327 13,500 -1,080 Descending Los Angeles Center
05:50PM 36.1053 -115.5336 89° East 271 312 12,900 -900 Descending Los Angeles Center
05:51PM 36.1075 -115.4964 86° East 266 306 12,600 -720 Descending Los Angeles Center
05:51PM 36.1078 -115.4450 90° East 252 290 12,200 -720 Descending Los Angeles Center
05:52PM 36.1111 -115.4114 83° East 255 293 11,900 -720 Descending Los Angeles Center
05:52PM 36.1161 -115.3625 83° East 240 276 11,500 -780 Descending Los Angeles Center
05:53PM 36.1231 -115.3308 75° East 243 280 11,100 -1,020 Descending Los Angeles Center
05:53PM 36.1306 -115.2806 80° East 238 274 10,500 -1,020 Descending Los Angeles Center
05:54PM 36.1358 -115.2503 78° East 241 277 10,100 -1,020 Descending Los Angeles Center
05:54PM 36.1433 -115.1992 80° East 245 282 9,500 -1,080 Descending Los Angeles Center
05:55PM 36.1494 -115.1500 81° East 243 280 9,000 -900 Descending Los Angeles Center
05:55PM 36.1344 -115.1089 114° Southeast 254 292 8,600 -600 Descending Los Angeles Center
05:56PM 36.1175 -115.0747 122° Southeast 248 285 8,400 -540 Descending Los Angeles Center
05:56PM 36.0869 -115.0794 187° South 226 260 8,100 -420 Descending Los Angeles Center
05:57PM 36.0589 -115.0897 196° South 225 259 8,000 -120 Descending Los Angeles Center
05:57PM 36.0311 -115.1006 198° South 210 242 8,000  Level Los Angeles Center
05:58PM 36.0031 -115.1111 197° South 210 242 8,000 -420 Level Los Angeles Center
05:58PM 35.9753 -115.1217 197° South 209 241 7,600 -900 Descending Los Angeles Center
05:59PM 35.9461 -115.1333 198° South 211 243 7,100 -600 Descending Los Angeles Center
05:59PM 35.9158 -115.1467 200° South 210 242 7,000 -120 Descending Los Angeles Center
06:00PM 35.8939 -115.1589 204° Southwest 208 239 7,000 -540 Level Los Angeles Center
06:01PM 35.8922 -115.2242 268° West 195 224 6,100 -660 Descending Los Angeles Center
06:01PM 35.9231 -115.2397 338° Northwest 175 201 6,000 -300 Descending Los Angeles Center
06:02PM 35.9447 -115.2300 20° North 183 211 5,800 -900 Descending Los Angeles Center
06:02PM 35.9711 -115.2214 15° North 175 201 5,100 -720 Descending Los Angeles Center
06:03PM 35.9856 -115.2136 24° Northeast 181 208 5,100 -1,560 Level Los Angeles Center
06:03PM 36.0122 -115.2025 19° North 179 206 3,700 -1,560 Descending Los Angeles Center
06:04PM 36.0522 -115.1797 25° Northeast 155 178 2,900 -840 Descending Los Angeles Center
06:06PM 36.0667 -115.1500 North  Level FlightAware Approximate
06:13PM 36.0801 -115.1523 North  Level Estimated